Tapachula International Airport
MMTP : now visible

Airfield :











YOU CAN JOIN US ON...

 
LOGIN :

Register | Disclaimer

   EN    FR    IT 

 









Legend :    VFR   Marginal VFR   IFR   Intensive IFR   Very Intensive IFR
Visi :
Ceiling :
>= 8 km
>= 3000ft
5 to 8 km
1000 to 3000 ft
1500m to 5 km
500 to 1000 ft
800 to 1500m
200 to 500 ft
< 800m
< 200 ft
Symbols :   Thunderstorms  Fog  Heavy snow  Heavy precipitations  Wind > 20 kt






- Airport Elevation : 97 ft
- IATA code : TAP


MMTP - Tapachula International

CURRENT METAR :
  • 280042Z 17002KT 8SM SCT040 BKN120 OVC200 27/26 A2986 RMK 8/463 HZY

EXPIRED METARs :
  • 272340Z 00000KT 7SM BKN030 OVC110 28/26 A2985 RMK SLP132 52004 931 8/77/ HZY
  • 272240Z 18003KT 7SM SCT020 BKN110 28/25 A2984 RMK 8/770 HZY DSNT CB NE

TAF TAF MMTP
Valid from the 28 at 00:00 until the 29 at 06:00 UTC


272318Z 2800/2906 20008KT P6SM VC RA SCT020CB BKN100 BKN250 TN23/2812Z TX33/2818Z
TEMPO 2800/2804 4SM TSRA
FM280400 02005KT P6SM SCT020 BKN100 BKN250
FM281500 26008KT P6SM SCT020 SCT100 BKN280
PROB40 2816/2820 4SM TSRA BKN015CB
BECMG 2822/2822 06008KT P6SM VC RA SCT020CB BKN100 BKN200
TEMPO 2901/2905 3SM TSRA BKN020CB OVC090
MMFR FIR / North America



MET'MAP, your aeronautical weather chart ! - Copyright ORBIFLY December 2007 - Disclaimer

ORBIFLY MET'MAP TEAM :

Programming & Development : Alexandra Zaïnal
Concept & original design : Baudouin d'Aumeries
Assistance for programming : Marc-Olivier Méhu
Technical & hardware support : Manuel Goepfert

Contact : metmap@orbifly.com




SOURCES & CREDITS :

   NOAA       Earth
Advisory